sensor_id;sensor_type;location;lat;lon;timestamp;P1;durP1;ratioP1;P2;durP2;ratioP2
35675;SDS011;21790;42.668;23.298;2022-12-29T00:02:14;65.95;;;28.40;;
35675;SDS011;21790;42.668;23.298;2022-12-29T00:04:40;66.00;;;27.73;;
35675;SDS011;21790;42.668;23.298;2022-12-29T00:07:06;46.83;;;23.05;;
35675;SDS011;21790;42.668;23.298;2022-12-29T00:09:32;57.97;;;25.15;;
35675;SDS011;21790;42.668;23.298;2022-12-29T00:11:59;53.53;;;24.52;;
35675;SDS011;21790;42.668;23.298;2022-12-29T00:14:25;56.20;;;24.20;;
35675;SDS011;21790;42.668;23.298;2022-12-29T00:17:09;55.70;;;23.48;;
35675;SDS011;21790;42.668;23.298;2022-12-29T00:19:35;53.42;;;24.55;;
35675;SDS011;21790;42.668;23.298;2022-12-29T00:22:19;53.10;;;23.50;;
35675;SDS011;21790;42.668;23.298;2022-12-29T00:25:03;60.05;;;25.27;;
35675;SDS011;21790;42.668;23.298;2022-12-29T00:27:47;65.43;;;25.25;;
35675;SDS011;21790;42.668;23.298;2022-12-29T00:30:31;58.63;;;24.23;;
35675;SDS011;21790;42.668;23.298;2022-12-29T00:33:16;51.88;;;22.63;;
35675;SDS011;21790;42.668;23.298;2022-12-29T00:36:02;57.97;;;23.98;;
35675;SDS011;21790;42.668;23.298;2022-12-29T00:38:51;53.65;;;24.33;;
35675;SDS011;21790;42.668;23.298;2022-12-29T00:41:41;57.28;;;25.52;;
35675;SDS011;21790;42.668;23.298;2022-12-29T00:44:25;53.17;;;25.70;;
35675;SDS011;21790;42.668;23.298;2022-12-29T00:46:50;56.42;;;23.38;;
35675;SDS011;21790;42.668;23.298;2022-12-29T00:49:16;60.10;;;27.65;;
35675;SDS011;21790;42.668;23.298;2022-12-29T00:54:28;65.10;;;23.70;;
35675;SDS011;21790;42.668;23.298;2022-12-29T00:56:55;55.42;;;24.88;;
35675;SDS011;21790;42.668;23.298;2022-12-29T00:59:21;56.30;;;24.65;;
35675;SDS011;21790;42.668;23.298;2022-12-29T01:01:50;56.47;;;24.73;;
35675;SDS011;21790;42.668;23.298;2022-12-29T01:04:17;51.95;;;22.33;;
35675;SDS011;21790;42.668;23.298;2022-12-29T01:06:43;52.28;;;23.83;;
35675;SDS011;21790;42.668;23.298;2022-12-29T01:09:10;55.22;;;23.90;;
35675;SDS011;21790;42.668;23.298;2022-12-29T01:11:54;54.00;;;25.10;;
35675;SDS011;21790;42.668;23.298;2022-12-29T01:14:20;62.05;;;23.58;;
35675;SDS011;21790;42.668;23.298;2022-12-29T01:16:46;62.70;;;25.52;;
35675;SDS011;21790;42.668;23.298;2022-12-29T01:19:12;54.58;;;24.60;;
35675;SDS011;21790;42.668;23.298;2022-12-29T01:21:38;56.20;;;25.63;;
35675;SDS011;21790;42.668;23.298;2022-12-29T01:24:03;52.58;;;24.77;;
35675;SDS011;21790;42.668;23.298;2022-12-29T01:26:29;50.42;;;24.73;;
35675;SDS011;21790;42.668;23.298;2022-12-29T01:28:55;48.35;;;23.80;;
35675;SDS011;21790;42.668;23.298;2022-12-29T01:31:20;54.17;;;23.55;;
35675;SDS011;21790;42.668;23.298;2022-12-29T01:33:46;51.85;;;25.58;;
35675;SDS011;21790;42.668;23.298;2022-12-29T01:36:13;58.38;;;23.42;;
35675;SDS011;21790;42.668;23.298;2022-12-29T01:38:40;51.75;;;23.95;;
35675;SDS011;21790;42.668;23.298;2022-12-29T01:41:07;52.80;;;25.02;;
35675;SDS011;21790;42.668;23.298;2022-12-29T01:48:46;58.53;;;28.08;;
35675;SDS011;21790;42.668;23.298;2022-12-29T01:51:13;59.47;;;26.75;;
35675;SDS011;21790;42.668;23.298;2022-12-29T01:53:40;57.28;;;26.30;;
35675;SDS011;21790;42.668;23.298;2022-12-29T01:56:07;59.92;;;26.25;;
35675;SDS011;21790;42.668;23.298;2022-12-29T01:58:37;59.70;;;25.33;;
35675;SDS011;21790;42.668;23.298;2022-12-29T02:01:06;58.90;;;27.38;;
35675;SDS011;21790;42.668;23.298;2022-12-29T02:03:33;58.53;;;26.15;;
35675;SDS011;21790;42.668;23.298;2022-12-29T02:06:14;56.90;;;25.42;;
35675;SDS011;21790;42.668;23.298;2022-12-29T02:08:46;55.92;;;24.35;;
35675;SDS011;21790;42.668;23.298;2022-12-29T02:11:12;45.83;;;23.40;;
35675;SDS011;21790;42.668;23.298;2022-12-29T02:13:40;46.78;;;21.80;;
35675;SDS011;21790;42.668;23.298;2022-12-29T02:29:26;34.38;;;16.85;;
35675;SDS011;21790;42.668;23.298;2022-12-29T02:32:38;35.47;;;16.55;;
35675;SDS011;21790;42.668;23.298;2022-12-29T02:40:06;32.25;;;16.08;;
35675;SDS011;21790;42.668;23.298;2022-12-29T02:48:32;34.85;;;16.33;;
35675;SDS011;21790;42.668;23.298;2022-12-29T02:51:09;42.40;;;16.05;;
35675;SDS011;21790;42.668;23.298;2022-12-29T02:53:42;35.20;;;15.65;;
35675;SDS011;21790;42.668;23.298;2022-12-29T02:56:27;36.00;;;15.32;;
35675;SDS011;21790;42.668;23.298;2022-12-29T02:58:53;36.08;;;15.15;;
35675;SDS011;21790;42.668;23.298;2022-12-29T03:12:07;28.67;;;15.75;;
35675;SDS011;21790;42.668;23.298;2022-12-29T03:15:15;33.45;;;15.55;;
35675;SDS011;21790;42.668;23.298;2022-12-29T03:18:10;34.75;;;15.25;;
35675;SDS011;21790;42.668;23.298;2022-12-29T03:23:43;32.28;;;15.23;;
35675;SDS011;21790;42.668;23.298;2022-12-29T03:26:12;33.80;;;15.65;;
35675;SDS011;21790;42.668;23.298;2022-12-29T03:28:52;34.63;;;15.85;;
35675;SDS011;21790;42.668;23.298;2022-12-29T03:31:21;32.50;;;15.40;;
35675;SDS011;21790;42.668;23.298;2022-12-29T03:33:48;35.35;;;15.77;;
35675;SDS011;21790;42.668;23.298;2022-12-29T03:36:21;40.92;;;17.38;;
35675;SDS011;21790;42.668;23.298;2022-12-29T03:39:04;35.78;;;18.00;;
35675;SDS011;21790;42.668;23.298;2022-12-29T03:41:36;40.95;;;17.35;;
35675;SDS011;21790;42.668;23.298;2022-12-29T03:44:07;36.90;;;17.80;;
35675;SDS011;21790;42.668;23.298;2022-12-29T03:46:34;37.92;;;18.15;;
35675;SDS011;21790;42.668;23.298;2022-12-29T03:49:00;44.50;;;18.77;;
35675;SDS011;21790;42.668;23.298;2022-12-29T03:51:25;40.65;;;18.35;;
35675;SDS011;21790;42.668;23.298;2022-12-29T03:53:50;41.97;;;17.67;;
35675;SDS011;21790;42.668;23.298;2022-12-29T03:56:16;41.72;;;16.77;;
35675;SDS011;21790;42.668;23.298;2022-12-29T03:58:41;38.47;;;18.75;;
35675;SDS011;21790;42.668;23.298;2022-12-29T04:01:07;44.63;;;19.23;;
35675;SDS011;21790;42.668;23.298;2022-12-29T04:03:32;41.60;;;19.38;;
35675;SDS011;21790;42.668;23.298;2022-12-29T04:05:58;45.50;;;20.90;;
35675;SDS011;21790;42.668;23.298;2022-12-29T04:08:23;45.13;;;19.92;;
35675;SDS011;21790;42.668;23.298;2022-12-29T04:10:49;35.33;;;17.60;;
35675;SDS011;21790;42.668;23.298;2022-12-29T04:13:15;38.40;;;17.42;;
35675;SDS011;21790;42.668;23.298;2022-12-29T04:15:42;35.10;;;15.93;;
35675;SDS011;21790;42.668;23.298;2022-12-29T04:18:08;34.47;;;16.02;;
35675;SDS011;21790;42.668;23.298;2022-12-29T04:20:34;40.00;;;16.25;;
35675;SDS011;21790;42.668;23.298;2022-12-29T04:23:17;34.35;;;16.83;;
35675;SDS011;21790;42.668;23.298;2022-12-29T04:25:44;36.72;;;16.58;;
35675;SDS011;21790;42.668;23.298;2022-12-29T04:28:11;40.95;;;17.65;;
35675;SDS011;21790;42.668;23.298;2022-12-29T04:30:37;39.15;;;17.55;;
35675;SDS011;21790;42.668;23.298;2022-12-29T04:33:02;38.33;;;17.75;;
35675;SDS011;21790;42.668;23.298;2022-12-29T04:35:28;31.58;;;16.17;;
35675;SDS011;21790;42.668;23.298;2022-12-29T04:37:53;38.85;;;18.05;;
35675;SDS011;21790;42.668;23.298;2022-12-29T04:40:19;43.50;;;19.38;;
35675;SDS011;21790;42.668;23.298;2022-12-29T04:42:44;39.55;;;18.45;;
35675;SDS011;21790;42.668;23.298;2022-12-29T04:45:10;34.65;;;17.25;;
35675;SDS011;21790;42.668;23.298;2022-12-29T04:47:35;46.40;;;20.67;;
35675;SDS011;21790;42.668;23.298;2022-12-29T04:50:02;41.40;;;18.95;;
35675;SDS011;21790;42.668;23.298;2022-12-29T04:52:28;45.08;;;20.75;;
35675;SDS011;21790;42.668;23.298;2022-12-29T04:54:53;38.22;;;18.67;;
35675;SDS011;21790;42.668;23.298;2022-12-29T04:57:19;41.42;;;19.08;;
35675;SDS011;21790;42.668;23.298;2022-12-29T04:59:45;48.60;;;19.75;;
35675;SDS011;21790;42.668;23.298;2022-12-29T05:02:10;35.92;;;18.65;;
35675;SDS011;21790;42.668;23.298;2022-12-29T05:04:37;46.60;;;19.20;;
35675;SDS011;21790;42.668;23.298;2022-12-29T05:07:04;39.25;;;18.65;;
35675;SDS011;21790;42.668;23.298;2022-12-29T05:09:29;42.15;;;18.48;;
35675;SDS011;21790;42.668;23.298;2022-12-29T05:11:55;41.55;;;20.27;;
35675;SDS011;21790;42.668;23.298;2022-12-29T05:14:21;42.25;;;19.42;;
35675;SDS011;21790;42.668;23.298;2022-12-29T05:16:46;43.00;;;18.50;;
35675;SDS011;21790;42.668;23.298;2022-12-29T05:19:12;37.60;;;19.33;;
35675;SDS011;21790;42.668;23.298;2022-12-29T05:21:37;41.65;;;20.00;;
35675;SDS011;21790;42.668;23.298;2022-12-29T05:24:03;42.60;;;20.10;;
35675;SDS011;21790;42.668;23.298;2022-12-29T05:26:29;36.95;;;17.38;;
35675;SDS011;21790;42.668;23.298;2022-12-29T05:28:54;38.78;;;18.35;;
35675;SDS011;21790;42.668;23.298;2022-12-29T05:31:20;42.67;;;19.58;;
35675;SDS011;21790;42.668;23.298;2022-12-29T05:33:45;45.38;;;20.20;;
35675;SDS011;21790;42.668;23.298;2022-12-29T05:36:11;44.03;;;20.77;;
35675;SDS011;21790;42.668;23.298;2022-12-29T05:38:37;46.85;;;19.52;;
35675;SDS011;21790;42.668;23.298;2022-12-29T05:41:02;43.08;;;18.75;;
35675;SDS011;21790;42.668;23.298;2022-12-29T05:43:28;39.13;;;19.77;;
35675;SDS011;21790;42.668;23.298;2022-12-29T05:45:53;44.13;;;19.08;;
35675;SDS011;21790;42.668;23.298;2022-12-29T05:48:20;42.17;;;19.77;;
35675;SDS011;21790;42.668;23.298;2022-12-29T05:50:49;48.92;;;20.65;;
35675;SDS011;21790;42.668;23.298;2022-12-29T05:53:15;42.83;;;18.98;;
35675;SDS011;21790;42.668;23.298;2022-12-29T05:55:42;44.35;;;18.63;;
35675;SDS011;21790;42.668;23.298;2022-12-29T05:58:08;36.78;;;17.90;;
35675;SDS011;21790;42.668;23.298;2022-12-29T06:00:33;48.30;;;20.92;;
35675;SDS011;21790;42.668;23.298;2022-12-29T06:02:59;39.92;;;19.55;;
35675;SDS011;21790;42.668;23.298;2022-12-29T06:05:24;42.63;;;19.10;;
35675;SDS011;21790;42.668;23.298;2022-12-29T06:07:50;44.20;;;20.67;;
35675;SDS011;21790;42.668;23.298;2022-12-29T06:10:16;44.67;;;21.00;;
35675;SDS011;21790;42.668;23.298;2022-12-29T06:12:42;41.08;;;21.25;;
35675;SDS011;21790;42.668;23.298;2022-12-29T06:15:08;41.70;;;21.17;;
35675;SDS011;21790;42.668;23.298;2022-12-29T06:17:33;61.20;;;21.73;;
35675;SDS011;21790;42.668;23.298;2022-12-29T06:20:00;48.95;;;21.75;;
35675;SDS011;21790;42.668;23.298;2022-12-29T06:22:26;51.63;;;23.40;;
35675;SDS011;21790;42.668;23.298;2022-12-29T06:24:51;46.30;;;22.20;;
35675;SDS011;21790;42.668;23.298;2022-12-29T06:27:16;45.72;;;21.05;;
35675;SDS011;21790;42.668;23.298;2022-12-29T06:29:42;42.28;;;21.10;;
35675;SDS011;21790;42.668;23.298;2022-12-29T06:32:07;39.85;;;19.88;;
35675;SDS011;21790;42.668;23.298;2022-12-29T06:34:33;43.53;;;19.10;;
35675;SDS011;21790;42.668;23.298;2022-12-29T06:36:59;46.58;;;20.45;;
35675;SDS011;21790;42.668;23.298;2022-12-29T06:39:26;47.03;;;21.55;;
35675;SDS011;21790;42.668;23.298;2022-12-29T06:41:52;51.08;;;23.83;;
35675;SDS011;21790;42.668;23.298;2022-12-29T06:44:18;38.45;;;19.45;;
35675;SDS011;21790;42.668;23.298;2022-12-29T06:46:44;46.38;;;20.48;;
35675;SDS011;21790;42.668;23.298;2022-12-29T06:49:10;45.20;;;20.83;;
35675;SDS011;21790;42.668;23.298;2022-12-29T06:51:35;36.80;;;19.65;;
35675;SDS011;21790;42.668;23.298;2022-12-29T06:54:01;45.63;;;20.83;;
35675;SDS011;21790;42.668;23.298;2022-12-29T06:56:26;32.92;;;16.55;;
35675;SDS011;21790;42.668;23.298;2022-12-29T06:58:52;42.10;;;19.48;;
35675;SDS011;21790;42.668;23.298;2022-12-29T07:01:19;37.08;;;19.13;;
35675;SDS011;21790;42.668;23.298;2022-12-29T07:03:45;36.92;;;19.67;;
35675;SDS011;21790;42.668;23.298;2022-12-29T07:06:10;43.58;;;20.67;;
35675;SDS011;21790;42.668;23.298;2022-12-29T07:08:42;33.72;;;19.00;;
35675;SDS011;21790;42.668;23.298;2022-12-29T07:11:07;41.63;;;19.13;;
35675;SDS011;21790;42.668;23.298;2022-12-29T07:13:34;40.95;;;18.80;;
35675;SDS011;21790;42.668;23.298;2022-12-29T07:16:04;39.63;;;18.20;;
35675;SDS011;21790;42.668;23.298;2022-12-29T07:33:06;47.63;;;22.55;;
35675;SDS011;21790;42.668;23.298;2022-12-29T07:35:35;43.40;;;22.83;;
35675;SDS011;21790;42.668;23.298;2022-12-29T07:40:27;50.70;;;23.95;;
35675;SDS011;21790;42.668;23.298;2022-12-29T07:42:52;45.85;;;22.38;;
35675;SDS011;21790;42.668;23.298;2022-12-29T07:45:19;43.58;;;22.58;;
35675;SDS011;21790;42.668;23.298;2022-12-29T07:47:47;45.67;;;22.10;;
35675;SDS011;21790;42.668;23.298;2022-12-29T07:50:14;56.33;;;23.67;;
35675;SDS011;21790;42.668;23.298;2022-12-29T07:52:39;44.10;;;21.73;;
35675;SDS011;21790;42.668;23.298;2022-12-29T07:55:05;44.00;;;21.90;;
35675;SDS011;21790;42.668;23.298;2022-12-29T07:57:32;43.33;;;21.73;;
35675;SDS011;21790;42.668;23.298;2022-12-29T07:59:58;39.55;;;20.20;;
35675;SDS011;21790;42.668;23.298;2022-12-29T08:02:24;40.15;;;19.30;;
35675;SDS011;21790;42.668;23.298;2022-12-29T08:04:51;39.83;;;20.83;;
35675;SDS011;21790;42.668;23.298;2022-12-29T08:07:16;44.83;;;20.83;;
35675;SDS011;21790;42.668;23.298;2022-12-29T08:09:42;42.10;;;20.42;;
35675;SDS011;21790;42.668;23.298;2022-12-29T08:12:08;45.83;;;19.50;;
35675;SDS011;21790;42.668;23.298;2022-12-29T08:14:35;38.45;;;20.52;;
35675;SDS011;21790;42.668;23.298;2022-12-29T08:17:02;46.25;;;21.00;;
35675;SDS011;21790;42.668;23.298;2022-12-29T08:19:28;45.03;;;21.60;;
35675;SDS011;21790;42.668;23.298;2022-12-29T08:21:53;37.90;;;19.38;;
35675;SDS011;21790;42.668;23.298;2022-12-29T08:24:19;35.55;;;18.80;;
35675;SDS011;21790;42.668;23.298;2022-12-29T08:26:44;38.17;;;19.35;;
35675;SDS011;21790;42.668;23.298;2022-12-29T08:29:10;41.65;;;20.30;;
35675;SDS011;21790;42.668;23.298;2022-12-29T08:31:35;46.33;;;20.10;;
35675;SDS011;21790;42.668;23.298;2022-12-29T08:34:01;42.22;;;21.83;;
35675;SDS011;21790;42.668;23.298;2022-12-29T08:36:28;42.92;;;21.35;;
35675;SDS011;21790;42.668;23.298;2022-12-29T08:38:55;45.97;;;22.00;;
35675;SDS011;21790;42.668;23.298;2022-12-29T08:41:21;43.30;;;20.88;;
35675;SDS011;21790;42.668;23.298;2022-12-29T08:43:47;44.85;;;22.85;;
35675;SDS011;21790;42.668;23.298;2022-12-29T08:46:13;52.47;;;23.48;;
35675;SDS011;21790;42.668;23.298;2022-12-29T08:48:39;47.22;;;22.98;;
35675;SDS011;21790;42.668;23.298;2022-12-29T08:51:05;40.92;;;21.65;;
35675;SDS011;21790;42.668;23.298;2022-12-29T08:53:30;51.30;;;24.88;;
35675;SDS011;21790;42.668;23.298;2022-12-29T08:55:57;52.33;;;24.33;;
35675;SDS011;21790;42.668;23.298;2022-12-29T08:58:24;50.28;;;24.83;;
35675;SDS011;21790;42.668;23.298;2022-12-29T09:00:54;51.03;;;24.35;;
35675;SDS011;21790;42.668;23.298;2022-12-29T09:03:21;43.65;;;22.98;;
35675;SDS011;21790;42.668;23.298;2022-12-29T09:05:48;44.83;;;23.80;;
35675;SDS011;21790;42.668;23.298;2022-12-29T09:08:15;57.05;;;26.15;;
35675;SDS011;21790;42.668;23.298;2022-12-29T09:10:42;45.70;;;23.33;;
35675;SDS011;21790;42.668;23.298;2022-12-29T09:13:08;46.88;;;24.23;;
35675;SDS011;21790;42.668;23.298;2022-12-29T09:15:35;48.10;;;24.23;;
35675;SDS011;21790;42.668;23.298;2022-12-29T09:18:01;49.28;;;26.48;;
35675;SDS011;21790;42.668;23.298;2022-12-29T09:20:28;43.60;;;21.52;;
35675;SDS011;21790;42.668;23.298;2022-12-29T09:22:55;43.22;;;23.30;;
35675;SDS011;21790;42.668;23.298;2022-12-29T09:25:21;42.03;;;22.98;;
35675;SDS011;21790;42.668;23.298;2022-12-29T09:27:49;46.00;;;22.38;;
35675;SDS011;21790;42.668;23.298;2022-12-29T09:30:17;45.28;;;23.67;;
35675;SDS011;21790;42.668;23.298;2022-12-29T09:32:44;43.95;;;21.60;;
35675;SDS011;21790;42.668;23.298;2022-12-29T09:35:10;44.10;;;22.25;;
35675;SDS011;21790;42.668;23.298;2022-12-29T09:37:36;48.53;;;23.63;;
35675;SDS011;21790;42.668;23.298;2022-12-29T09:40:02;44.53;;;21.95;;
35675;SDS011;21790;42.668;23.298;2022-12-29T09:45:04;52.55;;;26.63;;
35675;SDS011;21790;42.668;23.298;2022-12-29T09:47:34;51.45;;;25.50;;
35675;SDS011;21790;42.668;23.298;2022-12-29T09:50:12;45.28;;;23.92;;
35675;SDS011;21790;42.668;23.298;2022-12-29T09:52:50;42.67;;;21.30;;
35675;SDS011;21790;42.668;23.298;2022-12-29T09:55:37;41.15;;;20.92;;
35675;SDS011;21790;42.668;23.298;2022-12-29T09:58:17;43.40;;;23.30;;
35675;SDS011;21790;42.668;23.298;2022-12-29T10:01:05;59.30;;;26.20;;
35675;SDS011;21790;42.668;23.298;2022-12-29T10:03:40;54.90;;;26.42;;
35675;SDS011;21790;42.668;23.298;2022-12-29T10:06:11;57.78;;;25.73;;
35675;SDS011;21790;42.668;23.298;2022-12-29T10:25:49;43.05;;;22.00;;
35675;SDS011;21790;42.668;23.298;2022-12-29T10:28:23;42.92;;;21.55;;
35675;SDS011;21790;42.668;23.298;2022-12-29T10:31:01;44.72;;;21.25;;
35675;SDS011;21790;42.668;23.298;2022-12-29T10:33:34;45.47;;;22.30;;
35675;SDS011;21790;42.668;23.298;2022-12-29T10:36:09;39.15;;;19.90;;
35675;SDS011;21790;42.668;23.298;2022-12-29T10:41:39;42.95;;;20.95;;
35675;SDS011;21790;42.668;23.298;2022-12-29T10:44:07;35.75;;;19.92;;
35675;SDS011;21790;42.668;23.298;2022-12-29T10:46:39;41.00;;;20.70;;
35675;SDS011;21790;42.668;23.298;2022-12-29T10:49:14;47.13;;;21.45;;
35675;SDS011;21790;42.668;23.298;2022-12-29T10:51:43;37.80;;;20.50;;
35675;SDS011;21790;42.668;23.298;2022-12-29T10:54:13;41.50;;;19.77;;
35675;SDS011;21790;42.668;23.298;2022-12-29T10:59:21;40.58;;;19.48;;
35675;SDS011;21790;42.668;23.298;2022-12-29T11:07:05;37.83;;;19.90;;
35675;SDS011;21790;42.668;23.298;2022-12-29T11:09:36;44.30;;;22.13;;
35675;SDS011;21790;42.668;23.298;2022-12-29T11:12:17;39.97;;;22.15;;
35675;SDS011;21790;42.668;23.298;2022-12-29T11:14:45;40.10;;;20.58;;
35675;SDS011;21790;42.668;23.298;2022-12-29T11:17:16;48.17;;;22.00;;
35675;SDS011;21790;42.668;23.298;2022-12-29T11:19:43;44.67;;;23.10;;
35675;SDS011;21790;42.668;23.298;2022-12-29T11:22:27;50.30;;;23.05;;
35675;SDS011;21790;42.668;23.298;2022-12-29T11:24:54;41.45;;;21.10;;
35675;SDS011;21790;42.668;23.298;2022-12-29T11:27:32;45.10;;;23.30;;
35675;SDS011;21790;42.668;23.298;2022-12-29T11:29:58;45.70;;;22.25;;
35675;SDS011;21790;42.668;23.298;2022-12-29T11:32:28;45.83;;;21.83;;
35675;SDS011;21790;42.668;23.298;2022-12-29T11:34:58;39.40;;;20.33;;
35675;SDS011;21790;42.668;23.298;2022-12-29T11:37:29;37.47;;;19.98;;
35675;SDS011;21790;42.668;23.298;2022-12-29T11:40:18;36.28;;;19.10;;
35675;SDS011;21790;42.668;23.298;2022-12-29T11:42:51;40.65;;;17.85;;
35675;SDS011;21790;42.668;23.298;2022-12-29T11:45:22;39.92;;;18.98;;
35675;SDS011;21790;42.668;23.298;2022-12-29T11:47:51;49.75;;;22.58;;
35675;SDS011;21790;42.668;23.298;2022-12-29T11:50:23;42.63;;;19.98;;
35675;SDS011;21790;42.668;23.298;2022-12-29T11:52:58;43.75;;;19.02;;
35675;SDS011;21790;42.668;23.298;2022-12-29T11:55:25;31.90;;;16.40;;
35675;SDS011;21790;42.668;23.298;2022-12-29T11:57:58;30.67;;;16.58;;
35675;SDS011;21790;42.668;23.298;2022-12-29T12:00:28;39.22;;;16.30;;
35675;SDS011;21790;42.668;23.298;2022-12-29T12:05:38;28.92;;;15.02;;
35675;SDS011;21790;42.668;23.298;2022-12-29T12:10:46;36.45;;;16.50;;
35675;SDS011;21790;42.668;23.298;2022-12-29T12:13:19;30.35;;;15.82;;
35675;SDS011;21790;42.668;23.298;2022-12-29T12:16:37;34.85;;;17.15;;
35675;SDS011;21790;42.668;23.298;2022-12-29T12:18:50;28.88;;;16.08;;
35675;SDS011;21790;42.668;23.298;2022-12-29T12:21:29;34.53;;;17.88;;
35675;SDS011;21790;42.668;23.298;2022-12-29T12:24:22;35.45;;;17.55;;
35675;SDS011;21790;42.668;23.298;2022-12-29T12:26:55;29.67;;;15.57;;
35675;SDS011;21790;42.668;23.298;2022-12-29T12:29:58;34.15;;;15.80;;
35675;SDS011;21790;42.668;23.298;2022-12-29T12:35:11;29.90;;;15.48;;
35675;SDS011;21790;42.668;23.298;2022-12-29T12:38:00;32.55;;;15.70;;
35675;SDS011;21790;42.668;23.298;2022-12-29T12:40:43;37.45;;;15.05;;
35675;SDS011;21790;42.668;23.298;2022-12-29T12:51:33;35.72;;;15.18;;
35675;SDS011;21790;42.668;23.298;2022-12-29T12:57:18;33.90;;;14.98;;
35675;SDS011;21790;42.668;23.298;2022-12-29T13:00:04;38.17;;;15.50;;
35675;SDS011;21790;42.668;23.298;2022-12-29T13:06:02;31.20;;;15.68;;
35675;SDS011;21790;42.668;23.298;2022-12-29T13:17:37;34.55;;;14.88;;
35675;SDS011;21790;42.668;23.298;2022-12-29T13:23:11;30.63;;;14.95;;
35675;SDS011;21790;42.668;23.298;2022-12-29T13:31:20;35.65;;;16.83;;
35675;SDS011;21790;42.668;23.298;2022-12-29T13:34:10;36.22;;;15.75;;
35675;SDS011;21790;42.668;23.298;2022-12-29T13:36:58;31.60;;;15.93;;
35675;SDS011;21790;42.668;23.298;2022-12-29T13:39:30;32.25;;;15.40;;
35675;SDS011;21790;42.668;23.298;2022-12-29T13:42:00;32.03;;;16.40;;
35675;SDS011;21790;42.668;23.298;2022-12-29T13:50:21;28.98;;;15.85;;
35675;SDS011;21790;42.668;23.298;2022-12-29T13:55:25;35.92;;;17.10;;
35675;SDS011;21790;42.668;23.298;2022-12-29T13:58:00;29.13;;;16.17;;
35675;SDS011;21790;42.668;23.298;2022-12-29T14:08:54;29.83;;;15.00;;
35675;SDS011;21790;42.668;23.298;2022-12-29T14:11:34;27.25;;;14.55;;
35675;SDS011;21790;42.668;23.298;2022-12-29T14:14:22;30.25;;;14.52;;
35675;SDS011;21790;42.668;23.298;2022-12-29T14:16:49;35.38;;;15.48;;
35675;SDS011;21790;42.668;23.298;2022-12-29T14:19:18;32.03;;;15.52;;
35675;SDS011;21790;42.668;23.298;2022-12-29T14:24:27;32.50;;;15.50;;
35675;SDS011;21790;42.668;23.298;2022-12-29T14:37:25;39.45;;;16.98;;
35675;SDS011;21790;42.668;23.298;2022-12-29T14:40:33;37.55;;;16.83;;
35675;SDS011;21790;42.668;23.298;2022-12-29T14:42:59;38.55;;;17.63;;
35675;SDS011;21790;42.668;23.298;2022-12-29T14:45:28;35.58;;;16.27;;
35675;SDS011;21790;42.668;23.298;2022-12-29T14:47:55;32.78;;;17.02;;
35675;SDS011;21790;42.668;23.298;2022-12-29T14:50:23;31.27;;;16.65;;
35675;SDS011;21790;42.668;23.298;2022-12-29T14:52:51;34.78;;;16.00;;
35675;SDS011;21790;42.668;23.298;2022-12-29T15:00:40;38.03;;;17.10;;
35675;SDS011;21790;42.668;23.298;2022-12-29T15:03:12;37.03;;;17.10;;
35675;SDS011;21790;42.668;23.298;2022-12-29T15:08:10;38.80;;;17.98;;
35675;SDS011;21790;42.668;23.298;2022-12-29T15:10:39;40.55;;;17.35;;
35675;SDS011;21790;42.668;23.298;2022-12-29T15:13:37;30.42;;;16.58;;
35675;SDS011;21790;42.668;23.298;2022-12-29T15:16:21;36.78;;;17.10;;
35675;SDS011;21790;42.668;23.298;2022-12-29T15:18:53;40.00;;;17.90;;
35675;SDS011;21790;42.668;23.298;2022-12-29T15:21:30;57.38;;;22.17;;
35675;SDS011;21790;42.668;23.298;2022-12-29T15:24:00;43.95;;;20.85;;
35675;SDS011;21790;42.668;23.298;2022-12-29T15:26:41;45.30;;;20.48;;
35675;SDS011;21790;42.668;23.298;2022-12-29T15:29:33;51.78;;;22.98;;
35675;SDS011;21790;42.668;23.298;2022-12-29T15:32:24;53.60;;;24.50;;
35675;SDS011;21790;42.668;23.298;2022-12-29T15:34:53;51.72;;;23.52;;
35675;SDS011;21790;42.668;23.298;2022-12-29T15:37:24;49.50;;;23.83;;
35675;SDS011;21790;42.668;23.298;2022-12-29T15:39:52;51.67;;;23.58;;
35675;SDS011;21790;42.668;23.298;2022-12-29T15:45:25;65.78;;;25.65;;
35675;SDS011;21790;42.668;23.298;2022-12-29T15:47:58;67.07;;;28.13;;
35675;SDS011;21790;42.668;23.298;2022-12-29T15:50:31;65.70;;;27.13;;
35675;SDS011;21790;42.668;23.298;2022-12-29T15:53:02;60.95;;;28.38;;
35675;SDS011;21790;42.668;23.298;2022-12-29T15:55:35;64.22;;;27.48;;
35675;SDS011;21790;42.668;23.298;2022-12-29T15:58:04;51.53;;;25.10;;
35675;SDS011;21790;42.668;23.298;2022-12-29T16:00:45;62.20;;;25.85;;
35675;SDS011;21790;42.668;23.298;2022-12-29T16:03:13;72.38;;;26.10;;
35675;SDS011;21790;42.668;23.298;2022-12-29T16:05:40;54.17;;;24.80;;
35675;SDS011;21790;42.668;23.298;2022-12-29T16:08:23;65.95;;;27.33;;
35675;SDS011;21790;42.668;23.298;2022-12-29T16:10:54;71.18;;;27.83;;
35675;SDS011;21790;42.668;23.298;2022-12-29T16:13:28;68.53;;;29.77;;
35675;SDS011;21790;42.668;23.298;2022-12-29T16:16:06;59.53;;;27.02;;
35675;SDS011;21790;42.668;23.298;2022-12-29T16:18:38;65.53;;;28.10;;
35675;SDS011;21790;42.668;23.298;2022-12-29T16:21:05;66.80;;;26.83;;
35675;SDS011;21790;42.668;23.298;2022-12-29T16:23:40;60.08;;;25.27;;
35675;SDS011;21790;42.668;23.298;2022-12-29T16:26:15;66.53;;;27.58;;
35675;SDS011;21790;42.668;23.298;2022-12-29T16:28:42;65.10;;;28.60;;
35675;SDS011;21790;42.668;23.298;2022-12-29T16:31:22;72.40;;;31.52;;
35675;SDS011;21790;42.668;23.298;2022-12-29T16:33:51;73.55;;;32.85;;
35675;SDS011;21790;42.668;23.298;2022-12-29T16:39:02;63.17;;;28.55;;
35675;SDS011;21790;42.668;23.298;2022-12-29T16:41:43;67.23;;;29.27;;
35675;SDS011;21790;42.668;23.298;2022-12-29T16:44:22;67.82;;;31.60;;
35675;SDS011;21790;42.668;23.298;2022-12-29T16:49:23;65.05;;;29.02;;
35675;SDS011;21790;42.668;23.298;2022-12-29T16:51:49;70.40;;;27.75;;
35675;SDS011;21790;42.668;23.298;2022-12-29T16:54:53;72.72;;;28.42;;
35675;SDS011;21790;42.668;23.298;2022-12-29T16:57:22;68.53;;;28.58;;
35675;SDS011;21790;42.668;23.298;2022-12-29T16:59:50;63.70;;;28.00;;
35675;SDS011;21790;42.668;23.298;2022-12-29T17:02:19;70.85;;;29.10;;
35675;SDS011;21790;42.668;23.298;2022-12-29T17:04:47;58.30;;;27.45;;
35675;SDS011;21790;42.668;23.298;2022-12-29T17:07:19;58.47;;;27.58;;
35675;SDS011;21790;42.668;23.298;2022-12-29T17:09:46;65.82;;;28.48;;
35675;SDS011;21790;42.668;23.298;2022-12-29T17:12:16;74.75;;;31.58;;
35675;SDS011;21790;42.668;23.298;2022-12-29T17:17:38;66.97;;;27.33;;
35675;SDS011;21790;42.668;23.298;2022-12-29T17:22:42;59.85;;;27.38;;
35675;SDS011;21790;42.668;23.298;2022-12-29T17:25:11;66.00;;;29.88;;
35675;SDS011;21790;42.668;23.298;2022-12-29T17:27:48;75.72;;;30.88;;
35675;SDS011;21790;42.668;23.298;2022-12-29T17:32:52;71.55;;;30.15;;
35675;SDS011;21790;42.668;23.298;2022-12-29T17:35:22;75.55;;;30.38;;
35675;SDS011;21790;42.668;23.298;2022-12-29T17:37:49;80.28;;;31.77;;